Карточка аэропорта URSS

Внимание!
Информация на этой странице в стадии наполнения.
Если вы не увидели какой-то информации, или заметили неточность - пожалуйста сообщите нам!
Спасибо!
Команда RU-STAFF
Название аэропортаСочи
Название аэропорта (англ.)Sochi
Превышение89 ft. (27.1 m.)
Координаты43°26.634', 39°56.55'
Высота перехода13000 ft
Эшелон переходаQNH>=977hPa: FL150; QNH<977hPa: FL160
Коды ответчика1060-1077
Зона ОрВДРостов-на-Дону РПИ (URRV)
Данные METARURSS 200830Z 24004MPS 9999 FEW040 18/12 Q1017 R02/010070 R06/010070 NOSIG RMK R06/26004G07MPS MT OBSC QFE761
Проноз погоды (TAF)URSS 200755Z 2009/2109 27006G11MPS 9999 FEW040TCU TEMPO 2009/2017 24005G10MPS BECMG 2017/2019 05003G08MPS SCT100 TEMPO 2019/2024 12003G08MPS SCT010 BKN100 BECMG 2100/2102 04006MPS BECMG 2106/2107 26004G09MPS FEW030
NOTAMshow/hide NOTAM
AWOS   TABLE

Информация о ВПП

ВПП Длина ВПП (м.) Покрытие Курс ВПП Частота ILS
062890Цементобетон58111.1
242890Цементобетон238 
022500Цементобетон22110.5
202500Цементобетон202 

Диспетчерские позиции

Позывной Наименование органа УВД Частота
URSS_GNDСочи-Руление119.000
URSSFM1119.000
URSS_R_APPСочи-Круг119.700
URSS_TWRСочи-Старт121.200
URSS_APPСочи-Подход124.600
URSS_DELСочи-Деливери132.700



Спутниковое изображение